Time;durP1;ratioP1;P1;durP2;ratioP2;P2;SDS_P1;SDS_P2;PMS_P1;PMS_P2;Temp;Humidity;BMP_temperature;BMP_pressure;BME280_temperature;BME280_humidity;BME280_pressure;Samples;Min_cycle;Max_cycle;Signal;HPM_P1;HPM_P2
2021/03/28 00:01:10;;;;;;;2.20;1.90;;;4.70;99.90;;;;;;5059179;28;20395;-79
2021/03/28 00:03:41;;;;;;;4.90;2.27;;;4.60;99.90;;;;;;5058701;28;20398;-81
2021/03/28 00:06:30;;;;;;;2.90;2.50;;;4.70;99.90;;;;;;5059624;28;20942;-81
2021/03/28 00:09:22;;;;;;;2.07;1.87;;;4.70;99.90;;;;;;5064291;28;20430;-81
2021/03/28 00:11:57;;;;;;;7.97;3.20;;;4.60;99.90;;;;;;5064962;28;20398;-81
2021/03/28 00:14:41;;;;;;;9.50;2.60;;;4.40;99.90;;;;;;5061645;28;20421;-81
2021/03/28 00:17:29;;;;;;;8.80;2.93;;;4.30;99.90;;;;;;5057863;28;20398;-82
2021/03/28 00:20:13;;;;;;;2.10;1.90;;;4.00;99.90;;;;;;5058573;28;20887;-81
2021/03/28 00:22:47;;;;;;;2.30;2.10;;;4.20;99.90;;;;;;5058502;28;20718;-82
2021/03/28 00:25:30;;;;;;;7.77;3.87;;;4.00;99.90;;;;;;5057766;28;20394;-81
2021/03/28 00:27:57;;;;;;;3.23;2.93;;;4.30;99.90;;;;;;5059278;28;20511;-81
2021/03/28 00:30:36;;;;;;;4.70;3.30;;;4.30;99.90;;;;;;5058591;28;20407;-81
2021/03/28 00:33:20;;;;;;;2.70;2.47;;;4.40;99.90;;;;;;5058853;28;20425;-81
2021/03/28 00:35:58;;;;;;;2.63;2.33;;;4.20;99.90;;;;;;5059244;28;20831;-81
2021/03/28 00:38:31;;;;;;;5.97;2.77;;;4.60;99.90;;;;;;5059063;28;20391;-81
2021/03/28 00:41:18;;;;;;;5.03;3.10;;;4.20;99.90;;;;;;5059668;28;20445;-81
2021/03/28 00:43:58;;;;;;;8.60;2.70;;;4.20;99.90;;;;;;5058194;28;20485;-81
2021/03/28 00:46:39;;;;;;;3.83;2.90;;;4.30;99.90;;;;;;5057190;28;20946;-81
2021/03/28 00:49:07;;;;;;;6.30;2.87;;;4.10;99.90;;;;;;5060052;28;20450;-82
2021/03/28 00:51:35;;;;;;;3.20;2.00;;;4.10;99.90;;;;;;5060023;28;20856;-82
2021/03/28 00:54:13;;;;;;;6.00;2.60;;;4.10;99.90;;;;;;5060560;28;20455;-82
2021/03/28 00:56:43;;;;;;;3.07;2.77;;;4.00;99.90;;;;;;5060122;28;20524;-81
2021/03/28 00:59:35;;;;;;;3.37;2.67;;;4.20;99.90;;;;;;5061006;28;20395;-81
2021/03/28 01:02:28;;;;;;;8.97;2.77;;;4.10;99.90;;;;;;5062686;28;20402;-81
2021/03/28 01:05:17;;;;;;;2.60;2.40;;;4.10;99.90;;;;;;5060959;28;20395;-82
2021/03/28 01:07:54;;;;;;;4.70;3.30;;;4.10;99.90;;;;;;5062724;28;20538;-79
2021/03/28 01:10:53;;;;;;;3.63;3.30;;;4.10;99.90;;;;;;5060849;28;20401;-81
2021/03/28 01:13:39;;;;;;;9.60;3.27;;;4.00;99.90;;;;;;5061202;28;20409;-81
2021/03/28 01:16:36;;;;;;;2.53;2.33;;;4.10;99.90;;;;;;5062675;28;20449;-81
2021/03/28 01:19:33;;;;;;;3.73;3.37;;;4.00;99.90;;;;;;5063884;28;20747;-81
2021/03/28 01:22:18;;;;;;;14.83;3.50;;;4.00;99.90;;;;;;5064087;28;20458;-81
2021/03/28 01:25:07;;;;;;;3.30;2.97;;;3.90;99.90;;;;;;5063568;28;20403;-81
2021/03/28 01:27:46;;;;;;;3.10;2.40;;;3.90;99.90;;;;;;5072854;28;20487;-82
2021/03/28 01:30:19;;;;;;;7.90;3.07;;;4.10;99.90;;;;;;5073692;28;20418;-79
2021/03/28 01:32:49;;;;;;;5.57;2.43;;;4.00;99.90;;;;;;5074318;28;20401;-80
2021/03/28 01:35:23;;;;;;;5.30;2.53;;;4.10;99.90;;;;;;5069248;28;20391;-80
2021/03/28 01:38:04;;;;;;;4.20;3.30;;;4.20;99.90;;;;;;5044802;28;20430;-81
2021/03/28 01:40:48;;;;;;;24.20;3.47;;;4.20;99.90;;;;;;5061644;28;20399;-81
2021/03/28 01:43:38;;;;;;;5.07;2.87;;;4.20;99.90;;;;;;5060578;28;20454;-82
2021/03/28 01:46:35;;;;;;;5.70;2.87;;;4.40;99.90;;;;;;5060507;28;20462;-81
2021/03/28 01:49:22;;;;;;;10.13;2.63;;;4.40;99.90;;;;;;5061028;28;20482;-81
2021/03/28 01:52:15;;;;;;;8.30;3.23;;;4.30;99.90;;;;;;5061885;28;20395;-82
2021/03/28 01:55:03;;;;;;;2.90;2.60;;;4.60;99.90;;;;;;5061548;28;20423;-82
2021/03/28 01:57:58;;;;;;;5.80;2.90;;;4.70;99.90;;;;;;5063866;28;20403;-81
2021/03/28 02:00:37;;;;;;;7.60;3.83;;;4.50;99.90;;;;;;5065244;28;20521;-81
2021/03/28 02:03:20;;;;;;;4.37;2.80;;;4.60;99.90;;;;;;5065002;28;20403;-80
2021/03/28 02:05:57;;;;;;;4.13;2.87;;;4.50;99.90;;;;;;5065471;28;20391;-80
2021/03/28 02:08:51;;;;;;;5.60;3.27;;;4.70;99.90;;;;;;5064143;28;20528;-81
2021/03/28 02:11:41;;;;;;;3.87;3.00;;;4.80;99.90;;;;;;5063622;28;20379;-81
2021/03/28 02:14:23;;;;;;;12.03;3.93;;;4.40;99.90;;;;;;5064074;28;20485;-81
2021/03/28 02:17:02;;;;;;;2.40;2.20;;;4.60;99.90;;;;;;5064582;28;20399;-81
2021/03/28 02:19:35;;;;;;;3.93;3.03;;;4.60;99.90;;;;;;5065193;28;20462;-81
2021/03/28 02:22:25;;;;;;;3.27;2.97;;;4.60;99.90;;;;;;5063967;28;20394;-82
2021/03/28 02:25:13;;;;;;;13.93;2.73;;;4.70;99.90;;;;;;5064442;28;20410;-81
2021/03/28 02:27:51;;;;;;;4.10;2.67;;;4.50;99.90;;;;;;5064207;28;20467;-81
2021/03/28 02:30:50;;;;;;;5.40;3.30;;;4.60;99.90;;;;;;5065732;28;20391;-81
2021/03/28 02:33:41;;;;;;;6.07;3.47;;;4.70;99.90;;;;;;5064881;28;20482;-81
2021/03/28 02:36:26;;;;;;;3.67;2.50;;;4.60;99.90;;;;;;5065879;28;20406;-82
2021/03/28 02:39:11;;;;;;;6.13;3.33;;;4.70;99.90;;;;;;5064462;28;20398;-81
2021/03/28 02:41:50;;;;;;;3.13;2.83;;;4.70;99.90;;;;;;5065161;28;20402;-81
2021/03/28 02:44:41;;;;;;;9.53;3.20;;;5.00;99.90;;;;;;5066022;28;20427;-80
2021/03/28 02:47:31;;;;;;;7.40;3.23;;;4.90;99.90;;;;;;5074838;28;20493;-79
2021/03/28 02:50:14;;;;;;;5.90;3.53;;;4.70;99.90;;;;;;5075565;28;20425;-79
2021/03/28 02:53:01;;;;;;;6.17;3.13;;;4.70;99.90;;;;;;5075843;28;20481;-80
2021/03/28 02:55:41;;;;;;;5.43;2.97;;;4.80;99.90;;;;;;5066941;28;20686;-81
2021/03/28 02:58:31;;;;;;;12.33;3.13;;;4.50;99.90;;;;;;5064966;28;20398;-82
2021/03/28 03:01:22;;;;;;;10.03;3.80;;;4.50;99.90;;;;;;5065147;28;20789;-80
2021/03/28 03:04:19;;;;;;;4.00;2.97;;;4.40;99.90;;;;;;5064461;28;20395;-80
2021/03/28 03:07:12;;;;;;;5.30;3.13;;;4.60;99.90;;;;;;5064727;28;20953;-80
2021/03/28 03:10:01;;;;;;;6.13;2.67;;;4.70;99.90;;;;;;5064365;28;20875;-80
2021/03/28 03:12:41;;;;;;;15.40;4.67;;;4.60;99.90;;;;;;5063938;28;20391;-81
2021/03/28 03:15:31;;;;;;;3.00;2.30;;;4.60;99.90;;;;;;5064816;28;20487;-82
2021/03/28 03:18:35;;;;;;;17.73;4.37;;;4.80;99.90;;;;;;5063181;28;20390;-82
2021/03/28 03:21:33;;;;;;;5.17;3.30;;;4.80;99.90;;;;;;5062524;28;20402;-82
2021/03/28 03:24:34;;;;;;;5.83;3.33;;;5.00;99.90;;;;;;5062413;28;20407;-81
2021/03/28 03:27:20;;;;;;;6.17;3.80;;;4.80;99.90;;;;;;5063772;28;20456;-82
2021/03/28 03:30:07;;;;;;;4.40;3.13;;;4.90;99.90;;;;;;5063748;28;20398;-81
2021/03/28 03:33:04;;;;;;;6.03;3.30;;;5.10;99.90;;;;;;5064407;28;20399;-82
2021/03/28 03:35:56;;;;;;;4.50;3.07;;;5.20;99.90;;;;;;5063819;28;20482;-82
2021/03/28 03:38:56;;;;;;;11.90;4.63;;;5.30;99.90;;;;;;5063043;28;20399;-82
2021/03/28 03:41:46;;;;;;;3.57;3.33;;;5.10;99.90;;;;;;5063644;28;20724;-81
2021/03/28 03:44:30;;;;;;;7.43;3.67;;;5.00;99.90;;;;;;5063870;28;20454;-81
2021/03/28 03:47:19;;;;;;;6.90;3.40;;;4.90;99.90;;;;;;5063965;28;20442;-81
2021/03/28 03:50:09;;;;;;;5.90;2.90;;;4.70;99.90;;;;;;5064752;28;20401;-81
2021/03/28 03:52:52;;;;;;;5.53;4.00;;;4.90;99.90;;;;;;5065286;28;20440;-81
2021/03/28 03:55:40;;;;;;;5.97;3.10;;;5.00;99.90;;;;;;5064354;28;20398;-81
2021/03/28 03:58:29;;;;;;;5.30;3.10;;;5.20;99.90;;;;;;5064476;28;20840;-82
2021/03/28 04:01:10;;;;;;;3.90;3.53;;;5.40;99.90;;;;;;5066830;28;20496;-82
2021/03/28 04:03:57;;;;;;;3.33;3.03;;;5.30;99.90;;;;;;5064909;28;20398;-82
2021/03/28 04:06:50;;;;;;;10.47;3.30;;;5.30;99.90;;;;;;5065858;28;20449;-82
2021/03/28 04:09:27;;;;;;;8.80;3.97;;;5.20;99.90;;;;;;5065612;28;20386;-82
2021/03/28 04:12:31;;;;;;;12.80;4.60;;;5.40;99.90;;;;;;5064946;28;20390;-82
2021/03/28 04:15:06;;;;;;;4.03;2.93;;;5.40;99.90;;;;;;5066173;28;20442;-82
2021/03/28 04:17:59;;;;;;;4.87;3.13;;;5.50;99.90;;;;;;5066309;28;20424;-82
2021/03/28 04:20:40;;;;;;;15.20;2.83;;;5.30;99.90;;;;;;5065704;28;20454;-82
2021/03/28 04:23:45;;;;;;;3.47;3.20;;;5.30;99.90;;;;;;5066248;28;20395;-82
2021/03/28 04:26:27;;;;;;;3.67;3.17;;;5.10;99.90;;;;;;5066850;28;20446;-81
2021/03/28 04:29:04;;;;;;;2.60;2.40;;;5.10;99.90;;;;;;5065970;28;20386;-82
2021/03/28 04:32:03;;;;;;;5.77;4.10;;;5.30;99.90;;;;;;5065036;28;20398;-81
2021/03/28 04:35:03;;;;;;;6.73;2.73;;;5.40;99.90;;;;;;5065747;28;20419;-82
2021/03/28 04:38:00;;;;;;;7.47;3.23;;;5.50;99.90;;;;;;5064006;28;20402;-81
2021/03/28 04:40:36;;;;;;;7.50;3.37;;;5.50;99.90;;;;;;5050499;28;20421;-82
2021/03/28 04:43:34;;;;;;;5.80;2.43;;;5.10;99.90;;;;;;5064508;28;20461;-82
2021/03/28 04:46:21;;;;;;;6.50;3.43;;;5.30;99.90;;;;;;5063336;28;20430;-81
2021/03/28 04:49:08;;;;;;;4.17;3.17;;;5.30;99.90;;;;;;5064197;28;20361;-81
2021/03/28 04:52:05;;;;;;;15.10;3.60;;;5.10;99.90;;;;;;5064438;28;20398;-81
2021/03/28 04:55:05;;;;;;;4.60;3.10;;;5.20;99.90;;;;;;5063040;28;20451;-82
2021/03/28 04:57:59;;;;;;;9.13;2.37;;;5.40;99.90;;;;;;5063922;28;20403;-82
2021/03/28 05:00:54;;;;;;;3.93;3.73;;;5.40;99.90;;;;;;5064339;28;20399;-82
2021/03/28 05:03:43;;;;;;;3.70;3.40;;;5.40;99.90;;;;;;5062802;28;20422;-81
2021/03/28 05:06:46;;;;;;;6.90;3.97;;;5.60;99.90;;;;;;5063843;28;20781;-82
2021/03/28 05:09:38;;;;;;;13.50;3.60;;;5.60;99.90;;;;;;5063474;28;20437;-81
2021/03/28 05:12:26;;;;;;;3.77;3.10;;;5.80;99.90;;;;;;5062712;28;20394;-82
2021/03/28 05:15:20;;;;;;;9.47;2.43;;;5.80;99.90;;;;;;5061806;28;20382;-82
2021/03/28 05:18:20;;;;;;;6.20;3.17;;;5.90;99.90;;;;;;5060618;28;20403;-82
2021/03/28 05:21:12;;;;;;;3.00;2.80;;;5.80;99.90;;;;;;5061120;28;20441;-82
2021/03/28 05:24:10;;;;;;;5.93;2.53;;;5.60;99.90;;;;;;5061951;28;20458;-81
2021/03/28 05:26:56;;;;;;;3.60;2.97;;;5.80;99.90;;;;;;5061195;28;20445;-81
2021/03/28 05:29:54;;;;;;;3.73;2.90;;;5.90;99.90;;;;;;5060693;28;20391;-82
2021/03/28 05:32:52;;;;;;;6.17;3.40;;;5.90;99.90;;;;;;5063681;28;20398;-82
2021/03/28 05:35:40;;;;;;;12.67;4.03;;;5.50;99.90;;;;;;5065575;28;20394;-82
2021/03/28 05:38:31;;;;;;;2.83;2.53;;;5.70;99.90;;;;;;5065645;28;20529;-82
2021/03/28 05:41:19;;;;;;;14.40;4.00;;;5.50;99.90;;;;;;5069445;28;20394;-81
2021/03/28 05:44:24;;;;;;;5.70;3.03;;;5.40;99.90;;;;;;5070272;28;20454;-81
2021/03/28 05:47:22;;;;;;;10.40;3.33;;;5.40;99.90;;;;;;5075153;28;20534;-80
2021/03/28 05:50:14;;;;;;;3.80;2.80;;;5.40;99.90;;;;;;5066037;28;20397;-80
2021/03/28 05:53:12;;;;;;;4.30;3.00;;;5.40;99.90;;;;;;5063295;28;20410;-81
2021/03/28 05:56:04;;;;;;;5.77;2.73;;;5.40;99.90;;;;;;5063544;28;20411;-81
2021/03/28 05:58:46;;;;;;;5.70;3.30;;;5.70;99.90;;;;;;5062752;28;20463;-81
2021/03/28 06:01:31;;;;;;;10.43;4.43;;;5.60;99.90;;;;;;5062140;28;20395;-81
2021/03/28 06:04:34;;;;;;;4.30;3.90;;;5.70;99.90;;;;;;5062602;28;20755;-81
2021/03/28 06:07:34;;;;;;;4.77;3.47;;;5.80;99.90;;;;;;5062131;28;20960;-81
2021/03/28 06:10:34;;;;;;;5.20;4.13;;;5.60;99.90;;;;;;5062089;28;20391;-81
2021/03/28 06:13:22;;;;;;;4.37;3.07;;;5.80;99.90;;;;;;5062755;28;20391;-82
2021/03/28 06:16:09;;;;;;;7.73;3.77;;;5.70;99.90;;;;;;5063219;28;20537;-82
2021/03/28 06:19:05;;;;;;;7.20;4.27;;;5.70;99.90;;;;;;5061054;28;20795;-81
2021/03/28 06:21:59;;;;;;;5.47;3.70;;;5.70;99.90;;;;;;5062533;28;20402;-81
2021/03/28 06:24:52;;;;;;;11.43;3.63;;;5.50;99.90;;;;;;5062491;28;20427;-81
2021/03/28 06:27:55;;;;;;;5.13;3.40;;;5.40;99.90;;;;;;5062888;28;20588;-81
2021/03/28 06:30:46;;;;;;;3.90;3.30;;;5.50;99.90;;;;;;5061446;28;20897;-82
2021/03/28 06:33:46;;;;;;;5.17;3.83;;;5.80;99.90;;;;;;5063761;28;20394;-82
2021/03/28 06:36:45;;;;;;;5.13;4.73;;;5.80;99.90;;;;;;5063296;28;20418;-82
2021/03/28 06:39:51;;;;;;;6.13;3.63;;;6.10;99.90;;;;;;5063120;28;20407;-82
2021/03/28 06:42:49;;;;;;;4.63;2.97;;;6.20;99.90;;;;;;5061930;28;20506;-82
2021/03/28 06:45:47;;;;;;;5.97;3.97;;;6.40;99.90;;;;;;5061732;28;20402;-81
2021/03/28 06:48:45;;;;;;;6.43;4.30;;;6.40;99.90;;;;;;5061727;28;20462;-81
2021/03/28 06:51:36;;;;;;;7.47;3.53;;;6.50;99.90;;;;;;5060386;28;20403;-81
2021/03/28 06:54:30;;;;;;;5.43;3.13;;;6.40;99.90;;;;;;5061540;28;20940;-81
2021/03/28 06:57:17;;;;;;;4.23;3.50;;;6.60;99.90;;;;;;5062136;28;20902;-81
2021/03/28 07:00:17;;;;;;;6.80;4.03;;;6.70;99.90;;;;;;5060390;28;20445;-81
2021/03/28 07:03:16;;;;;;;7.40;5.17;;;6.70;99.90;;;;;;5060440;28;20733;-81
2021/03/28 07:05:57;;;;;;;9.00;3.50;;;6.70;99.90;;;;;;5060592;28;20453;-81
2021/03/28 07:08:47;;;;;;;4.93;3.70;;;6.90;99.90;;;;;;5061769;28;20568;-81
2021/03/28 07:11:27;;;;;;;5.20;3.07;;;7.00;99.90;;;;;;5061584;28;20394;-81
2021/03/28 07:14:23;;;;;;;3.77;3.17;;;7.10;99.90;;;;;;5061330;28;20383;-81
2021/03/28 07:17:13;;;;;;;7.13;3.53;;;7.00;99.90;;;;;;5061351;28;20395;-82
2021/03/28 07:20:19;;;;;;;6.40;3.40;;;6.80;99.90;;;;;;5060744;28;20393;-81
2021/03/28 07:23:06;;;;;;;6.83;3.70;;;6.60;99.90;;;;;;5060564;28;20394;-81
2021/03/28 07:25:50;;;;;;;4.53;4.03;;;6.70;99.90;;;;;;5061467;28;20469;-81
2021/03/28 07:28:48;;;;;;;4.30;3.80;;;6.80;99.90;;;;;;5060834;28;20482;-81
2021/03/28 07:31:44;;;;;;;6.50;2.90;;;6.90;99.90;;;;;;5060669;28;20391;-81
2021/03/28 07:34:39;;;;;;;6.80;4.17;;;7.10;99.90;;;;;;5062321;28;20875;-81
2021/03/28 07:37:39;;;;;;;9.43;3.90;;;7.00;99.90;;;;;;5062922;28;20401;-81
2021/03/28 07:40:20;;;;;;;7.07;3.60;;;7.10;99.90;;;;;;5047793;28;20398;-81
2021/03/28 07:43:05;;;;;;;3.50;3.17;;;7.20;99.90;;;;;;5059257;28;21016;-81
2021/03/28 07:46:10;;;;;;;7.43;2.90;;;7.50;99.90;;;;;;5059449;28;20858;-81
2021/03/28 07:48:59;;;;;;;5.37;3.70;;;7.80;99.90;;;;;;5059006;28;20419;-81
2021/03/28 07:52:05;;;;;;;8.43;3.93;;;7.70;99.90;;;;;;5059478;28;20430;-81
2021/03/28 07:54:51;;;;;;;5.70;3.53;;;7.50;99.90;;;;;;5059734;28;20426;-81
2021/03/28 07:57:45;;;;;;;11.00;3.53;;;7.50;99.90;;;;;;5059267;28;20416;-81
2021/03/28 08:00:41;;;;;;;13.27;3.73;;;7.60;99.90;;;;;;5060202;28;20398;-80
2021/03/28 08:03:36;;;;;;;7.53;2.90;;;7.80;99.90;;;;;;5059360;28;20818;-81
2021/03/28 08:06:29;;;;;;;3.77;2.40;;;7.60;99.90;;;;;;5058822;28;20395;-81
2021/03/28 08:09:26;;;;;;;7.63;3.20;;;7.70;99.90;;;;;;5031420;28;20440;-81
2021/03/28 08:12:17;;;;;;;4.63;3.30;;;7.50;99.90;;;;;;5060684;28;20501;-81
2021/03/28 08:15:13;;;;;;;7.23;4.23;;;7.50;99.90;;;;;;5061416;28;20399;-80
2021/03/28 08:18:13;;;;;;;6.43;3.73;;;7.60;99.90;;;;;;5062061;28;20409;-81
2021/03/28 08:20:59;;;;;;;8.00;3.40;;;8.10;99.90;;;;;;5060236;28;20406;-81
2021/03/28 08:23:48;;;;;;;6.00;3.20;;;8.00;99.90;;;;;;5059166;28;20433;-81
2021/03/28 08:26:28;;;;;;;6.73;3.23;;;8.20;99.90;;;;;;5059274;28;20526;-81
2021/03/28 08:29:18;;;;;;;3.57;2.60;;;8.40;99.90;;;;;;5060472;28;20390;-81
2021/03/28 08:32:02;;;;;;;3.60;3.30;;;8.50;99.90;;;;;;5057854;28;20464;-81
2021/03/28 08:34:59;;;;;;;6.47;4.00;;;8.20;99.90;;;;;;5060306;28;20402;-81
2021/03/28 08:37:43;;;;;;;7.10;3.00;;;8.40;99.90;;;;;;5060728;28;20426;-82
2021/03/28 08:40:35;;;;;;;9.90;3.37;;;8.60;99.90;;;;;;5060425;28;20405;-81
2021/03/28 08:43:29;;;;;;;6.57;3.60;;;8.60;99.90;;;;;;5068625;28;20909;-81
2021/03/28 08:46:24;;;;;;;10.67;3.43;;;8.70;99.90;;;;;;5059461;28;20418;-82
2021/03/28 08:49:10;;;;;;;5.77;4.10;;;8.60;99.90;;;;;;5060002;28;20402;-81
2021/03/28 08:52:10;;;;;;;9.60;2.90;;;8.90;99.90;;;;;;5059737;28;20390;-82
2021/03/28 08:54:49;;;;;;;4.93;3.37;;;9.00;99.90;;;;;;5058900;28;20401;-82
2021/03/28 08:57:36;;;;;;;5.90;3.30;;;9.10;99.90;;;;;;5059784;28;20394;-81
2021/03/28 09:00:25;;;;;;;5.80;3.27;;;9.00;99.90;;;;;;5057827;28;20445;-82
2021/03/28 09:03:30;;;;;;;5.40;3.77;;;9.10;99.90;;;;;;5058595;28;20456;-82
2021/03/28 09:06:07;;;;;;;10.30;3.90;;;9.40;99.90;;;;;;5060142;28;20402;-84
2021/03/28 09:08:38;;;;;;;4.00;3.50;;;9.80;99.90;;;;;;5064143;28;20433;-82
2021/03/28 09:11:31;;;;;;;11.73;4.10;;;10.10;99.90;;;;;;5063467;28;20403;-81
2021/03/28 09:14:26;;;;;;;4.20;3.67;;;10.10;99.90;;;;;;5063839;28;20394;-81
2021/03/28 09:17:16;;;;;;;4.90;4.20;;;10.70;99.90;;;;;;5071752;28;20770;-81
2021/03/28 09:20:08;;;;;;;4.63;3.30;;;11.00;99.90;;;;;;5072046;28;20398;-80
2021/03/28 09:22:49;;;;;;;7.80;4.20;;;11.10;99.90;;;;;;5067267;28;20462;-81
2021/03/28 09:25:29;;;;;;;4.77;3.07;;;11.00;99.90;;;;;;5062993;28;20475;-81
2021/03/28 09:28:10;;;;;;;3.20;2.90;;;11.10;99.90;;;;;;5063198;28;20985;-81
2021/03/28 09:30:52;;;;;;;4.00;2.80;;;10.60;99.90;;;;;;5062166;28;20395;-81
2021/03/28 09:33:41;;;;;;;13.23;3.43;;;10.50;99.90;;;;;;5062549;28;20876;-82
2021/03/28 09:36:26;;;;;;;11.47;3.43;;;10.60;99.90;;;;;;5063175;28;20386;-81
2021/03/28 09:39:21;;;;;;;4.40;3.73;;;10.50;99.90;;;;;;5063409;28;20496;-81
2021/03/28 09:42:15;;;;;;;7.50;3.10;;;10.70;99.90;;;;;;5063533;28;20403;-81
2021/03/28 09:45:13;;;;;;;4.00;2.33;;;11.00;99.90;;;;;;5062519;28;20433;-82
2021/03/28 09:48:14;;;;;;;6.57;2.70;;;11.00;99.90;;;;;;5062776;28;20446;-81
2021/03/28 09:51:12;;;;;;;8.43;2.87;;;11.30;99.90;;;;;;5062683;28;20405;-81
2021/03/28 09:54:14;;;;;;;9.00;3.17;;;11.40;99.90;;;;;;5063296;28;20402;-82
2021/03/28 09:57:05;;;;;;;6.30;2.70;;;11.30;99.90;;;;;;5062266;28;20445;-82
2021/03/28 09:59:48;;;;;;;4.23;2.23;;;11.50;99.90;;;;;;5061386;28;20799;-81
2021/03/28 10:02:53;;;;;;;8.47;2.07;;;11.70;99.90;;;;;;5062788;28;20398;-81
2021/03/28 10:05:28;;;;;;;4.20;2.80;;;11.90;99.90;;;;;;5046774;28;20430;-82
2021/03/28 10:08:15;;;;;;;7.10;2.27;;;12.60;99.90;;;;;;5061811;28;20457;-82
2021/03/28 10:11:04;;;;;;;3.13;2.20;;;13.20;99.90;;;;;;5062152;28;20419;-82
2021/03/28 10:13:56;;;;;;;2.63;2.10;;;13.20;99.90;;;;;;5062921;28;20434;-82
2021/03/28 10:16:45;;;;;;;8.63;2.53;;;13.90;99.90;;;;;;5051094;28;20417;-81
2021/03/28 10:19:30;;;;;;;2.57;2.13;;;14.10;99.90;;;;;;5080725;28;20429;-81
2021/03/28 10:22:24;;;;;;;2.10;1.50;;;13.90;99.90;;;;;;5082572;28;20413;-81
2021/03/28 10:25:25;;;;;;;3.03;1.93;;;13.60;99.90;;;;;;5082782;28;20447;-81
2021/03/28 10:28:21;;;;;;;6.80;2.60;;;13.50;99.90;;;;;;5083146;28;20437;-81
2021/03/28 10:31:05;;;;;;;8.20;3.47;;;13.40;99.90;;;;;;5066384;28;20409;-82
2021/03/28 10:33:58;;;;;;;3.73;1.97;;;13.20;99.90;;;;;;5069509;28;20386;-82
2021/03/28 10:36:43;;;;;;;3.57;1.87;;;13.90;99.90;;;;;;5081927;28;20985;-82
2021/03/28 10:39:43;;;;;;;5.17;3.13;;;14.30;99.90;;;;;;5064271;28;20394;-83
2021/03/28 10:42:38;;;;;;;2.93;1.87;;;14.10;99.90;;;;;;5079757;28;20402;-80
2021/03/28 10:45:37;;;;;;;5.27;2.20;;;14.00;99.90;;;;;;5065487;28;20452;-83
2021/03/28 10:48:37;;;;;;;2.20;1.90;;;13.70;99.90;;;;;;5069398;28;20445;-82
2021/03/28 10:51:25;;;;;;;4.13;2.23;;;13.40;99.90;;;;;;5079564;28;20982;-82
2021/03/28 10:54:15;;;;;;;2.70;1.87;;;13.40;99.90;;;;;;5080965;28;20894;-82
2021/03/28 10:57:20;;;;;;;2.27;2.13;;;13.30;99.90;;;;;;5078992;28;20542;-81
2021/03/28 11:00:18;;;;;;;5.77;1.90;;;13.20;99.90;;;;;;5065027;28;20417;-82
2021/03/28 11:03:13;;;;;;;1.63;1.53;;;14.20;99.90;;;;;;5077924;28;20405;-82
2021/03/28 11:06:05;;;;;;;2.73;2.23;;;14.80;99.90;;;;;;5082451;28;20398;-82
2021/03/28 11:08:58;;;;;;;8.90;2.50;;;14.70;99.90;;;;;;5082770;28;20445;-82
2021/03/28 11:11:48;;;;;;;2.83;1.80;;;15.40;99.90;;;;;;5082932;28;20417;-82
2021/03/28 11:14:31;;;;;;;1.97;1.77;;;15.50;98.30;;;;;;5082416;28;20481;-82
2021/03/28 11:17:17;;;;;;;4.40;3.63;;;15.20;96.50;;;;;;5090185;28;20408;-80
2021/03/28 11:20:01;;;;;;;2.50;1.87;;;14.80;97.30;;;;;;5091688;28;20385;-81
2021/03/28 11:22:43;;;;;;;5.53;2.33;;;14.50;98.60;;;;;;5089983;28;20402;-80
2021/03/28 11:25:29;;;;;;;4.10;2.70;;;14.10;98.40;;;;;;5091648;28;20388;-80
2021/03/28 11:28:25;;;;;;;4.00;2.67;;;14.90;98.70;;;;;;5091283;28;20441;-79
2021/03/28 11:31:10;;;;;;;6.07;2.43;;;15.80;96.80;;;;;;5079606;28;20393;-81
2021/03/28 11:33:43;;;;;;;3.03;2.03;;;16.80;94.10;;;;;;5052623;28;20434;-80
2021/03/28 11:36:17;;;;;;;2.20;2.00;;;15.90;91.90;;;;;;5050908;28;20415;-80
2021/03/28 11:39:20;;;;;;;4.37;1.90;;;15.80;92.30;;;;;;5027444;28;20431;-83
2021/03/28 11:42:19;;;;;;;3.27;1.83;;;15.70;93.10;;;;;;5040773;28;20770;-83
2021/03/28 11:45:19;;;;;;;6.73;2.40;;;15.30;93.20;;;;;;5025766;28;20866;-82
2021/03/28 11:47:54;;;;;;;1.87;1.37;;;15.80;92.40;;;;;;5038830;28;20467;-81
2021/03/28 11:50:40;;;;;;;3.43;2.40;;;15.10;92.80;;;;;;5038615;28;20402;-81
2021/03/28 11:53:17;;;;;;;3.43;2.17;;;15.00;93.20;;;;;;5048446;28;20537;-82
2021/03/28 11:55:48;;;;;;;3.30;1.80;;;14.80;93.10;;;;;;5044802;28;20820;-82
2021/03/28 11:58:53;;;;;;;7.43;2.60;;;15.40;95.10;;;;;;5059654;28;20406;-83
2021/03/28 12:01:49;;;;;;;4.00;1.53;;;16.10;93.90;;;;;;5033562;28;20394;-82
2021/03/28 12:04:29;;;;;;;2.50;2.30;;;16.10;92.50;;;;;;5067261;28;20503;-83
2021/03/28 12:07:28;;;;;;;4.30;1.80;;;16.20;90.40;;;;;;5080654;28;20437;-81
2021/03/28 12:10:16;;;;;;;6.70;2.43;;;16.00;90.40;;;;;;5079982;28;20793;-81
2021/03/28 12:13:21;;;;;;;3.93;2.10;;;16.20;90.00;;;;;;5082982;28;20393;-82
2021/03/28 12:15:59;;;;;;;2.27;1.80;;;16.30;89.00;;;;;;5090161;28;20457;-81
2021/03/28 12:18:38;;;;;;;4.90;2.50;;;16.30;88.50;;;;;;5055400;28;20394;-79
2021/03/28 12:21:29;;;;;;;5.13;2.37;;;16.20;88.70;;;;;;5090248;28;20390;-81
2021/03/28 12:24:03;;;;;;;4.40;2.67;;;17.50;87.00;;;;;;5083671;28;20390;-79
2021/03/28 12:26:47;;;;;;;5.97;3.00;;;18.50;84.10;;;;;;5050080;28;20441;-79
2021/03/28 12:29:32;;;;;;;3.57;2.53;;;18.50;77.50;;;;;;5110363;28;20417;-82
2021/03/28 12:31:58;;;;;;;3.20;2.60;;;16.80;80.70;;;;;;5114698;28;20408;-82
2021/03/28 12:34:34;;;;;;;3.90;2.07;;;17.10;79.30;;;;;;5114660;28;20425;-83
2021/03/28 12:37:27;;;;;;;2.60;1.93;;;15.80;84.10;;;;;;5114130;28;20226;-82
2021/03/28 12:40:29;;;;;;;6.67;2.50;;;15.60;84.80;;;;;;5112425;28;20416;-83
2021/03/28 12:42:56;;;;;;;4.83;2.80;;;17.40;84.70;;;;;;5111924;28;20524;-83
2021/03/28 12:45:33;;;;;;;4.23;2.73;;;18.50;81.20;;;;;;5104941;28;20412;-83
2021/03/28 12:48:01;;;;;;;4.47;2.60;;;19.50;74.40;;;;;;5108863;28;20447;-82
2021/03/28 12:50:41;;;;;;;3.73;1.83;;;18.00;73.60;;;;;;5099433;28;20401;-81
2021/03/28 12:53:20;;;;;;;4.70;2.03;;;18.10;75.40;;;;;;5096493;28;20381;-83
2021/03/28 12:55:54;;;;;;;4.23;2.03;;;18.40;75.30;;;;;;5081405;28;20804;-82
2021/03/28 12:58:25;;;;;;;3.23;2.50;;;17.70;74.60;;;;;;5098061;28;20412;-82
2021/03/28 13:00:56;;;;;;;2.70;2.43;;;18.20;73.90;;;;;;5084175;28;20556;-80
2021/03/28 13:03:31;;;;;;;3.70;1.97;;;17.60;75.20;;;;;;5068940;28;20554;-79
2021/03/28 13:06:32;;;;;;;4.23;2.63;;;17.40;76.10;;;;;;5076222;28;20423;-79
2021/03/28 13:09:18;;;;;;;5.53;2.17;;;17.40;75.80;;;;;;5082020;28;20472;-80
2021/03/28 13:11:50;;;;;;;3.20;2.50;;;18.40;74.00;;;;;;5080903;28;20392;-81
2021/03/28 13:14:36;;;;;;;3.30;3.00;;;18.00;73.40;;;;;;5079273;28;20385;-81
2021/03/28 13:17:35;;;;;;;5.17;2.30;;;18.80;71.80;;;;;;5079660;28;20385;-82
2021/03/28 13:20:22;;;;;;;3.67;1.70;;;17.50;70.60;;;;;;5062378;28;20389;-82
2021/03/28 13:22:49;;;;;;;3.80;2.10;;;19.10;69.70;;;;;;5078711;28;20374;-83
2021/03/28 13:25:28;;;;;;;2.70;2.50;;;19.80;65.90;;;;;;5080393;28;20447;-82
2021/03/28 13:28:22;;;;;;;1.97;1.77;;;19.20;66.40;;;;;;5079289;28;20437;-82
2021/03/28 13:30:50;;;;;;;5.43;2.50;;;19.30;63.60;;;;;;5079270;28;20397;-82
2021/03/28 13:33:39;;;;;;;3.77;2.20;;;17.20;66.00;;;;;;5080021;28;20472;-82
2021/03/28 13:36:32;;;;;;;3.27;2.30;;;17.10;69.80;;;;;;5078501;28;20390;-82
2021/03/28 13:39:12;;;;;;;6.43;2.30;;;18.30;67.90;;;;;;5078771;28;20397;-83
2021/03/28 13:41:48;;;;;;;6.20;1.97;;;19.90;65.80;;;;;;5080487;28;20485;-83
2021/03/28 13:44:30;;;;;;;1.93;1.63;;;20.70;63.70;;;;;;5078872;28;20532;-82
2021/03/28 13:47:03;;;;;;;2.73;2.13;;;20.40;60.70;;;;;;5079279;28;20442;-83
2021/03/28 13:49:41;;;;;;;2.83;2.33;;;21.20;62.40;;;;;;5080087;28;20394;-83
2021/03/28 13:52:21;;;;;;;2.70;2.47;;;21.00;60.40;;;;;;5076512;28;20386;-81
2021/03/28 13:55:04;;;;;;;2.43;2.23;;;22.20;58.70;;;;;;5081775;28;20401;-81
2021/03/28 13:57:33;;;;;;;3.60;2.90;;;22.20;57.60;;;;;;5081037;28;20405;-83
2021/03/28 14:00:27;;;;;;;7.37;5.57;;;21.80;57.20;;;;;;5080189;28;20394;-81
2021/03/28 14:02:56;;;;;;;4.93;2.40;;;20.10;57.80;;;;;;5081273;28;20540;-81
2021/03/28 14:05:24;;;;;;;3.33;2.33;;;19.70;59.50;;;;;;5082114;28;20402;-81
2021/03/28 14:07:54;;;;;;;3.03;2.70;;;18.20;59.90;;;;;;5080821;28;20532;-80
2021/03/28 14:10:44;;;;;;;3.90;2.43;;;18.50;61.10;;;;;;5082379;28;20432;-81
2021/03/28 14:13:17;;;;;;;3.70;2.33;;;18.30;63.70;;;;;;5082204;28;20501;-81
2021/03/28 14:15:47;;;;;;;2.83;2.20;;;17.60;65.10;;;;;;5080391;28;20394;-82
2021/03/28 14:18:29;;;;;;;5.43;2.67;;;18.90;62.40;;;;;;5083241;28;20914;-82
2021/03/28 14:21:30;;;;;;;2.10;1.80;;;19.60;60.90;;;;;;5081674;28;20390;-81
2021/03/28 14:24:18;;;;;;;3.60;2.10;;;20.30;59.50;;;;;;5066879;28;20878;-80
2021/03/28 14:26:51;;;;;;;6.50;2.90;;;19.30;58.20;;;;;;5082157;28;20954;-82
2021/03/28 14:29:40;;;;;;;5.20;2.87;;;17.90;61.60;;;;;;5080006;28;20389;-82
2021/03/28 14:32:21;;;;;;;3.03;2.57;;;17.80;62.80;;;;;;5081481;28;20386;-81
2021/03/28 14:35:09;;;;;;;3.23;2.03;;;17.30;63.90;;;;;;5087734;28;20393;-82
2021/03/28 14:38:01;;;;;;;2.43;1.93;;;18.40;62.10;;;;;;5091083;28;20408;-80
2021/03/28 14:40:51;;;;;;;3.20;2.50;;;17.70;61.20;;;;;;5092103;28;20427;-81